sensor_id;sensor_type;location;lat;lon;timestamp;temperature;humidity
19279;DHT22;9773;47.062;15.446;2022-11-18T00:01:11;6.90;99.90
19279;DHT22;9773;47.062;15.446;2022-11-18T00:03:38;6.90;99.90
19279;DHT22;9773;47.062;15.446;2022-11-18T00:06:06;6.90;99.90
19279;DHT22;9773;47.062;15.446;2022-11-18T00:08:32;6.90;99.90
19279;DHT22;9773;47.062;15.446;2022-11-18T00:11:07;6.80;99.90
19279;DHT22;9773;47.062;15.446;2022-11-18T00:13:33;6.80;99.90
19279;DHT22;9773;47.062;15.446;2022-11-18T00:16:17;6.90;99.90
19279;DHT22;9773;47.062;15.446;2022-11-18T00:18:43;6.90;99.90
19279;DHT22;9773;47.062;15.446;2022-11-18T00:21:10;6.90;99.90
19279;DHT22;9773;47.062;15.446;2022-11-18T00:23:38;6.90;99.90
19279;DHT22;9773;47.062;15.446;2022-11-18T00:26:05;7.00;99.90
19279;DHT22;9773;47.062;15.446;2022-11-18T00:28:32;7.00;99.90
19279;DHT22;9773;47.062;15.446;2022-11-18T00:31:09;7.00;99.90
19279;DHT22;9773;47.062;15.446;2022-11-18T00:33:36;7.10;99.90
19279;DHT22;9773;47.062;15.446;2022-11-18T00:36:03;7.20;99.90
19279;DHT22;9773;47.062;15.446;2022-11-18T00:38:29;7.20;99.90
19279;DHT22;9773;47.062;15.446;2022-11-18T00:41:14;7.30;99.90
19279;DHT22;9773;47.062;15.446;2022-11-18T00:43:41;7.30;99.90
19279;DHT22;9773;47.062;15.446;2022-11-18T00:46:09;7.40;99.90
19279;DHT22;9773;47.062;15.446;2022-11-18T00:48:36;7.50;99.90
19279;DHT22;9773;47.062;15.446;2022-11-18T00:51:12;7.50;99.90
19279;DHT22;9773;47.062;15.446;2022-11-18T00:53:41;7.50;99.90
19279;DHT22;9773;47.062;15.446;2022-11-18T00:56:07;7.50;99.90
19279;DHT22;9773;47.062;15.446;2022-11-18T00:58:33;7.50;99.90
19279;DHT22;9773;47.062;15.446;2022-11-18T01:00:59;7.50;99.90
19279;DHT22;9773;47.062;15.446;2022-11-18T01:03:26;7.50;99.90
19279;DHT22;9773;47.062;15.446;2022-11-18T01:05:53;7.60;99.90
19279;DHT22;9773;47.062;15.446;2022-11-18T01:08:19;7.60;99.90
19279;DHT22;9773;47.062;15.446;2022-11-18T01:10:46;7.60;99.90
19279;DHT22;9773;47.062;15.446;2022-11-18T01:13:16;7.60;99.90
19279;DHT22;9773;47.062;15.446;2022-11-18T01:15:54;7.60;99.90
19279;DHT22;9773;47.062;15.446;2022-11-18T01:18:26;7.60;99.90
19279;DHT22;9773;47.062;15.446;2022-11-18T01:20:52;7.70;99.90
19279;DHT22;9773;47.062;15.446;2022-11-18T01:23:18;7.70;99.90
19279;DHT22;9773;47.062;15.446;2022-11-18T01:25:47;7.70;99.90
19279;DHT22;9773;47.062;15.446;2022-11-18T01:28:15;7.70;99.90
19279;DHT22;9773;47.062;15.446;2022-11-18T01:30:41;7.70;99.90
19279;DHT22;9773;47.062;15.446;2022-11-18T01:33:07;7.70;99.90
19279;DHT22;9773;47.062;15.446;2022-11-18T01:35:37;7.70;99.90
19279;DHT22;9773;47.062;15.446;2022-11-18T01:38:05;7.70;99.90
19279;DHT22;9773;47.062;15.446;2022-11-18T01:40:32;7.60;99.90
19279;DHT22;9773;47.062;15.446;2022-11-18T01:42:59;7.60;99.90
19279;DHT22;9773;47.062;15.446;2022-11-18T01:48:15;7.60;99.90
19279;DHT22;9773;47.062;15.446;2022-11-18T01:50:46;7.60;99.90
19279;DHT22;9773;47.062;15.446;2022-11-18T01:53:24;7.60;99.90
19279;DHT22;9773;47.062;15.446;2022-11-18T01:55:54;7.60;99.90
19279;DHT22;9773;47.062;15.446;2022-11-18T01:58:31;7.60;99.90
19279;DHT22;9773;47.062;15.446;2022-11-18T02:00:59;7.60;99.90
19279;DHT22;9773;47.062;15.446;2022-11-18T02:03:26;7.50;99.90
19279;DHT22;9773;47.062;15.446;2022-11-18T02:05:53;7.60;99.90
19279;DHT22;9773;47.062;15.446;2022-11-18T02:08:19;7.60;99.90
19279;DHT22;9773;47.062;15.446;2022-11-18T02:10:46;7.40;99.90
19279;DHT22;9773;47.062;15.446;2022-11-18T02:13:12;7.40;99.90
19279;DHT22;9773;47.062;15.446;2022-11-18T02:18:56;7.50;99.90
19279;DHT22;9773;47.062;15.446;2022-11-18T02:21:56;7.60;99.90
19279;DHT22;9773;47.062;15.446;2022-11-18T02:27:26;7.70;99.90
19279;DHT22;9773;47.062;15.446;2022-11-18T02:30:02;7.60;99.90
19279;DHT22;9773;47.062;15.446;2022-11-18T02:32:32;7.60;99.90
19279;DHT22;9773;47.062;15.446;2022-11-18T02:37:32;7.60;99.90
19279;DHT22;9773;47.062;15.446;2022-11-18T02:42:32;7.70;99.90
19279;DHT22;9773;47.062;15.446;2022-11-18T02:45:07;7.60;99.90
19279;DHT22;9773;47.062;15.446;2022-11-18T02:47:36;7.60;99.90
19279;DHT22;9773;47.062;15.446;2022-11-18T02:50:06;7.60;99.90
19279;DHT22;9773;47.062;15.446;2022-11-18T02:52:35;7.60;99.90
19279;DHT22;9773;47.062;15.446;2022-11-18T02:55:03;7.60;99.90
19279;DHT22;9773;47.062;15.446;2022-11-18T02:57:32;7.60;99.90
19279;DHT22;9773;47.062;15.446;2022-11-18T02:59:58;7.40;99.90
19279;DHT22;9773;47.062;15.446;2022-11-18T03:02:24;7.30;99.90
19279;DHT22;9773;47.062;15.446;2022-11-18T03:04:54;7.30;99.90
19279;DHT22;9773;47.062;15.446;2022-11-18T03:07:23;7.20;99.90
19279;DHT22;9773;47.062;15.446;2022-11-18T03:09:51;7.30;99.90
19279;DHT22;9773;47.062;15.446;2022-11-18T03:18:14;7.30;99.90
19279;DHT22;9773;47.062;15.446;2022-11-18T03:20:54;7.40;99.90
19279;DHT22;9773;47.062;15.446;2022-11-18T03:26:28;7.50;99.90
19279;DHT22;9773;47.062;15.446;2022-11-18T03:31:53;7.60;99.90
19279;DHT22;9773;47.062;15.446;2022-11-18T03:34:42;7.60;99.90
19279;DHT22;9773;47.062;15.446;2022-11-18T03:37:12;7.50;99.90
19279;DHT22;9773;47.062;15.446;2022-11-18T03:39:45;7.60;99.90
19279;DHT22;9773;47.062;15.446;2022-11-18T03:42:25;7.60;99.90
19279;DHT22;9773;47.062;15.446;2022-11-18T03:45:02;7.50;99.90
19279;DHT22;9773;47.062;15.446;2022-11-18T03:47:34;7.40;99.90
19279;DHT22;9773;47.062;15.446;2022-11-18T03:50:22;7.40;99.90
19279;DHT22;9773;47.062;15.446;2022-11-18T03:52:50;7.30;99.90
19279;DHT22;9773;47.062;15.446;2022-11-18T03:55:21;7.10;99.90
19279;DHT22;9773;47.062;15.446;2022-11-18T03:58:09;7.00;99.90
19279;DHT22;9773;47.062;15.446;2022-11-18T04:00:42;6.90;99.90
19279;DHT22;9773;47.062;15.446;2022-11-18T04:03:10;6.90;99.90
19279;DHT22;9773;47.062;15.446;2022-11-18T04:05:39;6.80;99.90
19279;DHT22;9773;47.062;15.446;2022-11-18T04:08:12;6.80;99.90
19279;DHT22;9773;47.062;15.446;2022-11-18T04:13:14;6.60;99.90
19279;DHT22;9773;47.062;15.446;2022-11-18T04:15:42;6.60;99.90
19279;DHT22;9773;47.062;15.446;2022-11-18T04:18:09;6.50;99.90
19279;DHT22;9773;47.062;15.446;2022-11-18T04:20:35;6.40;99.90
19279;DHT22;9773;47.062;15.446;2022-11-18T04:23:02;6.30;99.90
19279;DHT22;9773;47.062;15.446;2022-11-18T04:25:29;6.30;99.90
19279;DHT22;9773;47.062;15.446;2022-11-18T04:27:55;6.30;99.90
19279;DHT22;9773;47.062;15.446;2022-11-18T04:30:21;6.30;99.90
19279;DHT22;9773;47.062;15.446;2022-11-18T04:32:46;6.30;99.90
19279;DHT22;9773;47.062;15.446;2022-11-18T04:35:13;6.30;99.90
19279;DHT22;9773;47.062;15.446;2022-11-18T04:37:39;6.40;99.90
19279;DHT22;9773;47.062;15.446;2022-11-18T04:40:05;6.50;99.90
19279;DHT22;9773;47.062;15.446;2022-11-18T04:42:31;6.50;99.90
19279;DHT22;9773;47.062;15.446;2022-11-18T04:44:57;6.50;99.90
19279;DHT22;9773;47.062;15.446;2022-11-18T04:47:23;6.40;99.90
19279;DHT22;9773;47.062;15.446;2022-11-18T04:49:49;6.30;99.90
19279;DHT22;9773;47.062;15.446;2022-11-18T04:52:15;6.30;99.90
19279;DHT22;9773;47.062;15.446;2022-11-18T04:54:41;6.30;99.90
19279;DHT22;9773;47.062;15.446;2022-11-18T04:57:07;6.20;99.90
19279;DHT22;9773;47.062;15.446;2022-11-18T04:59:33;6.10;99.90
19279;DHT22;9773;47.062;15.446;2022-11-18T05:01:59;6.10;99.90
19279;DHT22;9773;47.062;15.446;2022-11-18T05:04:30;6.10;99.90
19279;DHT22;9773;47.062;15.446;2022-11-18T05:06:57;6.20;99.90
19279;DHT22;9773;47.062;15.446;2022-11-18T05:09:23;6.20;99.90
19279;DHT22;9773;47.062;15.446;2022-11-18T05:11:49;6.30;99.90
19279;DHT22;9773;47.062;15.446;2022-11-18T05:14:33;6.50;99.90
19279;DHT22;9773;47.062;15.446;2022-11-18T05:17:00;6.50;99.90
19279;DHT22;9773;47.062;15.446;2022-11-18T05:19:26;6.70;99.90
19279;DHT22;9773;47.062;15.446;2022-11-18T05:21:52;6.70;99.90
19279;DHT22;9773;47.062;15.446;2022-11-18T05:24:18;6.80;99.90
19279;DHT22;9773;47.062;15.446;2022-11-18T05:26:46;6.80;99.90
19279;DHT22;9773;47.062;15.446;2022-11-18T05:29:12;6.90;99.90
19279;DHT22;9773;47.062;15.446;2022-11-18T05:31:38;6.90;99.90
19279;DHT22;9773;47.062;15.446;2022-11-18T05:34:04;7.00;99.90
19279;DHT22;9773;47.062;15.446;2022-11-18T05:36:30;7.00;99.90
19279;DHT22;9773;47.062;15.446;2022-11-18T05:38:59;7.00;99.90
19279;DHT22;9773;47.062;15.446;2022-11-18T05:41:24;7.00;99.90
19279;DHT22;9773;47.062;15.446;2022-11-18T05:44:09;7.00;99.90
19279;DHT22;9773;47.062;15.446;2022-11-18T05:46:35;7.10;99.90
19279;DHT22;9773;47.062;15.446;2022-11-18T05:49:01;7.10;99.90
19279;DHT22;9773;47.062;15.446;2022-11-18T05:51:26;7.10;99.90
19279;DHT22;9773;47.062;15.446;2022-11-18T05:53:54;7.10;99.90
19279;DHT22;9773;47.062;15.446;2022-11-18T05:56:27;7.10;99.90
19279;DHT22;9773;47.062;15.446;2022-11-18T05:58:53;7.10;99.90
19279;DHT22;9773;47.062;15.446;2022-11-18T06:01:53;7.20;99.90
19279;DHT22;9773;47.062;15.446;2022-11-18T06:04:38;7.20;99.90
19279;DHT22;9773;47.062;15.446;2022-11-18T06:07:14;7.20;99.90
19279;DHT22;9773;47.062;15.446;2022-11-18T06:09:43;7.10;99.90
19279;DHT22;9773;47.062;15.446;2022-11-18T06:12:18;7.20;99.90
19279;DHT22;9773;47.062;15.446;2022-11-18T06:15:00;7.20;99.90
19279;DHT22;9773;47.062;15.446;2022-11-18T06:17:35;7.30;99.90
19279;DHT22;9773;47.062;15.446;2022-11-18T06:20:07;7.30;99.90
19279;DHT22;9773;47.062;15.446;2022-11-18T06:22:34;7.30;99.90
19279;DHT22;9773;47.062;15.446;2022-11-18T06:25:00;7.30;99.90
19279;DHT22;9773;47.062;15.446;2022-11-18T06:27:27;7.30;99.90
19279;DHT22;9773;47.062;15.446;2022-11-18T06:29:53;7.30;99.90
19279;DHT22;9773;47.062;15.446;2022-11-18T06:32:19;7.30;99.90
19279;DHT22;9773;47.062;15.446;2022-11-18T06:34:45;7.30;99.90
19279;DHT22;9773;47.062;15.446;2022-11-18T06:37:15;7.30;99.90
19279;DHT22;9773;47.062;15.446;2022-11-18T06:39:41;7.30;99.90
19279;DHT22;9773;47.062;15.446;2022-11-18T06:42:07;7.30;99.90
19279;DHT22;9773;47.062;15.446;2022-11-18T06:44:33;7.30;99.90
19279;DHT22;9773;47.062;15.446;2022-11-18T06:46:59;7.30;99.90
19279;DHT22;9773;47.062;15.446;2022-11-18T06:49:26;7.30;99.90
19279;DHT22;9773;47.062;15.446;2022-11-18T06:51:53;7.40;99.90
19279;DHT22;9773;47.062;15.446;2022-11-18T06:54:19;7.40;99.90
19279;DHT22;9773;47.062;15.446;2022-11-18T06:56:45;7.40;99.90
19279;DHT22;9773;47.062;15.446;2022-11-18T06:59:10;7.50;99.90
19279;DHT22;9773;47.062;15.446;2022-11-18T07:01:38;7.50;99.90
19279;DHT22;9773;47.062;15.446;2022-11-18T07:04:06;7.50;99.90
19279;DHT22;9773;47.062;15.446;2022-11-18T07:06:33;7.50;99.90
19279;DHT22;9773;47.062;15.446;2022-11-18T07:09:00;7.50;99.90
19279;DHT22;9773;47.062;15.446;2022-11-18T07:11:27;7.50;99.90
19279;DHT22;9773;47.062;15.446;2022-11-18T07:13:53;7.50;99.90
19279;DHT22;9773;47.062;15.446;2022-11-18T07:16:21;7.50;99.90
19279;DHT22;9773;47.062;15.446;2022-11-18T07:18:48;7.50;99.90
19279;DHT22;9773;47.062;15.446;2022-11-18T07:21:20;7.50;99.90
19279;DHT22;9773;47.062;15.446;2022-11-18T07:23:46;7.40;99.90
19279;DHT22;9773;47.062;15.446;2022-11-18T07:26:13;7.50;99.90
19279;DHT22;9773;47.062;15.446;2022-11-18T07:28:39;7.50;99.90
19279;DHT22;9773;47.062;15.446;2022-11-18T07:31:13;7.40;99.90
19279;DHT22;9773;47.062;15.446;2022-11-18T07:33:40;7.40;99.90
19279;DHT22;9773;47.062;15.446;2022-11-18T07:36:17;7.40;99.90
19279;DHT22;9773;47.062;15.446;2022-11-18T07:38:44;7.30;99.90
19279;DHT22;9773;47.062;15.446;2022-11-18T07:41:12;7.30;99.90
19279;DHT22;9773;47.062;15.446;2022-11-18T07:43:39;7.30;99.90
19279;DHT22;9773;47.062;15.446;2022-11-18T07:48:34;7.20;99.90
19279;DHT22;9773;47.062;15.446;2022-11-18T07:51:00;7.30;99.90
19279;DHT22;9773;47.062;15.446;2022-11-18T07:53:28;7.40;99.90
19279;DHT22;9773;47.062;15.446;2022-11-18T07:55:54;7.40;99.90
19279;DHT22;9773;47.062;15.446;2022-11-18T07:58:20;7.30;99.90
19279;DHT22;9773;47.062;15.446;2022-11-18T08:00:46;7.20;99.90
19279;DHT22;9773;47.062;15.446;2022-11-18T08:03:12;7.30;99.90
19279;DHT22;9773;47.062;15.446;2022-11-18T08:05:38;7.20;99.90
19279;DHT22;9773;47.062;15.446;2022-11-18T08:08:04;7.30;99.90
19279;DHT22;9773;47.062;15.446;2022-11-18T08:10:29;7.40;99.90
19279;DHT22;9773;47.062;15.446;2022-11-18T08:12:56;7.30;99.90
19279;DHT22;9773;47.062;15.446;2022-11-18T08:15:23;7.20;99.90
19279;DHT22;9773;47.062;15.446;2022-11-18T08:17:49;7.20;99.90
19279;DHT22;9773;47.062;15.446;2022-11-18T08:20:15;7.20;99.90
19279;DHT22;9773;47.062;15.446;2022-11-18T08:22:41;7.20;99.90
19279;DHT22;9773;47.062;15.446;2022-11-18T08:25:07;7.20;99.90
19279;DHT22;9773;47.062;15.446;2022-11-18T08:27:33;7.10;99.90
19279;DHT22;9773;47.062;15.446;2022-11-18T08:29:59;7.10;99.90
19279;DHT22;9773;47.062;15.446;2022-11-18T08:32:25;7.10;99.90
19279;DHT22;9773;47.062;15.446;2022-11-18T08:34:51;7.20;99.90
19279;DHT22;9773;47.062;15.446;2022-11-18T08:37:17;7.20;99.90
19279;DHT22;9773;47.062;15.446;2022-11-18T08:39:43;7.30;99.90
19279;DHT22;9773;47.062;15.446;2022-11-18T08:42:09;7.40;99.90
19279;DHT22;9773;47.062;15.446;2022-11-18T08:44:35;7.40;99.90
19279;DHT22;9773;47.062;15.446;2022-11-18T08:47:01;7.40;99.90
19279;DHT22;9773;47.062;15.446;2022-11-18T08:49:27;7.60;99.90
19279;DHT22;9773;47.062;15.446;2022-11-18T08:51:53;7.50;99.90
19279;DHT22;9773;47.062;15.446;2022-11-18T08:54:19;7.60;99.90
19279;DHT22;9773;47.062;15.446;2022-11-18T08:56:45;7.50;99.90
19279;DHT22;9773;47.062;15.446;2022-11-18T08:59:12;7.60;99.90
19279;DHT22;9773;47.062;15.446;2022-11-18T09:01:38;7.50;99.90
19279;DHT22;9773;47.062;15.446;2022-11-18T09:04:06;7.50;99.90
19279;DHT22;9773;47.062;15.446;2022-11-18T09:06:32;7.50;99.90
19279;DHT22;9773;47.062;15.446;2022-11-18T09:08:59;7.50;99.90
19279;DHT22;9773;47.062;15.446;2022-11-18T09:11:26;7.50;99.90
19279;DHT22;9773;47.062;15.446;2022-11-18T09:13:58;7.60;99.90
19279;DHT22;9773;47.062;15.446;2022-11-18T09:16:26;7.50;99.90
19279;DHT22;9773;47.062;15.446;2022-11-18T09:18:54;7.60;99.90
19279;DHT22;9773;47.062;15.446;2022-11-18T09:21:20;7.60;99.90
19279;DHT22;9773;47.062;15.446;2022-11-18T09:23:46;7.60;99.90
19279;DHT22;9773;47.062;15.446;2022-11-18T09:26:14;7.50;99.90
19279;DHT22;9773;47.062;15.446;2022-11-18T09:28:40;7.70;99.90
19279;DHT22;9773;47.062;15.446;2022-11-18T09:31:14;7.80;99.90
19279;DHT22;9773;47.062;15.446;2022-11-18T09:33:40;7.90;99.90
19279;DHT22;9773;47.062;15.446;2022-11-18T09:36:18;7.90;99.90
19279;DHT22;9773;47.062;15.446;2022-11-18T09:38:45;7.80;99.90
19279;DHT22;9773;47.062;15.446;2022-11-18T09:41:43;7.90;99.90
19279;DHT22;9773;47.062;15.446;2022-11-18T09:49:41;7.70;99.90
19279;DHT22;9773;47.062;15.446;2022-11-18T09:54:54;8.00;99.90
19279;DHT22;9773;47.062;15.446;2022-11-18T09:57:24;8.00;99.90
19279;DHT22;9773;47.062;15.446;2022-11-18T09:59:51;8.00;99.90
19279;DHT22;9773;47.062;15.446;2022-11-18T10:04:46;8.10;99.90
19279;DHT22;9773;47.062;15.446;2022-11-18T10:07:19;8.20;99.90
19279;DHT22;9773;47.062;15.446;2022-11-18T10:09:47;8.30;99.90
19279;DHT22;9773;47.062;15.446;2022-11-18T10:12:36;8.20;99.90
19279;DHT22;9773;47.062;15.446;2022-11-18T10:15:30;8.30;99.90
19279;DHT22;9773;47.062;15.446;2022-11-18T10:20:56;8.40;99.90
19279;DHT22;9773;47.062;15.446;2022-11-18T10:23:28;8.50;99.90
19279;DHT22;9773;47.062;15.446;2022-11-18T10:25:57;8.60;99.90
19279;DHT22;9773;47.062;15.446;2022-11-18T10:28:26;8.50;99.90
19279;DHT22;9773;47.062;15.446;2022-11-18T10:31:05;8.50;99.90
19279;DHT22;9773;47.062;15.446;2022-11-18T10:33:31;8.40;99.90
19279;DHT22;9773;47.062;15.446;2022-11-18T10:38:44;8.50;99.90
19279;DHT22;9773;47.062;15.446;2022-11-18T10:41:15;8.60;99.90
19279;DHT22;9773;47.062;15.446;2022-11-18T10:43:51;8.60;99.90
19279;DHT22;9773;47.062;15.446;2022-11-18T10:46:37;8.80;99.90
19279;DHT22;9773;47.062;15.446;2022-11-18T10:51:43;8.80;99.90
19279;DHT22;9773;47.062;15.446;2022-11-18T10:56:56;8.90;99.90
19279;DHT22;9773;47.062;15.446;2022-11-18T10:59:30;8.90;99.90
19279;DHT22;9773;47.062;15.446;2022-11-18T11:02:47;8.90;99.90
19279;DHT22;9773;47.062;15.446;2022-11-18T11:04:49;8.90;99.90
19279;DHT22;9773;47.062;15.446;2022-11-18T11:09:59;8.70;99.90
19279;DHT22;9773;47.062;15.446;2022-11-18T11:12:27;8.70;99.90
19279;DHT22;9773;47.062;15.446;2022-11-18T11:14:56;8.90;99.90
19279;DHT22;9773;47.062;15.446;2022-11-18T11:17:32;8.90;99.90
19279;DHT22;9773;47.062;15.446;2022-11-18T11:20:19;8.90;99.90
19279;DHT22;9773;47.062;15.446;2022-11-18T11:22:46;8.90;99.90
19279;DHT22;9773;47.062;15.446;2022-11-18T11:30:26;9.10;99.90
19279;DHT22;9773;47.062;15.446;2022-11-18T11:36:24;9.20;99.90
19279;DHT22;9773;47.062;15.446;2022-11-18T11:41:28;9.20;99.90
19279;DHT22;9773;47.062;15.446;2022-11-18T11:50:11;9.40;99.90
19279;DHT22;9773;47.062;15.446;2022-11-18T12:06:51;9.40;99.90
19279;DHT22;9773;47.062;15.446;2022-11-18T12:12:26;9.50;99.90
19279;DHT22;9773;47.062;15.446;2022-11-18T12:17:53;9.60;99.90
19279;DHT22;9773;47.062;15.446;2022-11-18T12:20:41;9.60;99.90
19279;DHT22;9773;47.062;15.446;2022-11-18T12:23:16;9.70;99.90
19279;DHT22;9773;47.062;15.446;2022-11-18T12:33:46;9.60;99.90
19279;DHT22;9773;47.062;15.446;2022-11-18T12:36:30;9.60;99.90
19279;DHT22;9773;47.062;15.446;2022-11-18T12:41:51;9.80;99.90
19279;DHT22;9773;47.062;15.446;2022-11-18T12:44:36;9.80;99.90
19279;DHT22;9773;47.062;15.446;2022-11-18T12:54:59;9.80;99.90
19279;DHT22;9773;47.062;15.446;2022-11-18T12:57:33;9.90;99.90
19279;DHT22;9773;47.062;15.446;2022-11-18T13:02:52;9.90;99.90
19279;DHT22;9773;47.062;15.446;2022-11-18T13:05:21;9.90;99.90
19279;DHT22;9773;47.062;15.446;2022-11-18T13:07:58;9.90;99.90
19279;DHT22;9773;47.062;15.446;2022-11-18T13:10:47;9.90;99.90
19279;DHT22;9773;47.062;15.446;2022-11-18T13:13:30;9.80;99.90
19279;DHT22;9773;47.062;15.446;2022-11-18T13:16:03;9.80;99.90
19279;DHT22;9773;47.062;15.446;2022-11-18T13:18:52;9.80;99.90
19279;DHT22;9773;47.062;15.446;2022-11-18T13:21:24;9.80;99.90
19279;DHT22;9773;47.062;15.446;2022-11-18T13:24:14;9.80;99.90
19279;DHT22;9773;47.062;15.446;2022-11-18T13:26:43;9.80;99.90
19279;DHT22;9773;47.062;15.446;2022-11-18T13:34:49;9.90;99.90
19279;DHT22;9773;47.062;15.446;2022-11-18T13:37:21;9.90;99.90
19279;DHT22;9773;47.062;15.446;2022-11-18T13:39:48;9.80;99.90
19279;DHT22;9773;47.062;15.446;2022-11-18T13:42:20;9.90;99.90
19279;DHT22;9773;47.062;15.446;2022-11-18T13:44:55;9.80;99.90
19279;DHT22;9773;47.062;15.446;2022-11-18T13:52:44;9.70;99.90
19279;DHT22;9773;47.062;15.446;2022-11-18T13:55:22;9.70;99.90
19279;DHT22;9773;47.062;15.446;2022-11-18T13:57:52;9.60;99.90
19279;DHT22;9773;47.062;15.446;2022-11-18T14:00:28;9.60;99.90
19279;DHT22;9773;47.062;15.446;2022-11-18T14:03:11;9.60;99.90
19279;DHT22;9773;47.062;15.446;2022-11-18T14:05:40;9.60;99.90
19279;DHT22;9773;47.062;15.446;2022-11-18T14:08:22;9.70;99.90
19279;DHT22;9773;47.062;15.446;2022-11-18T14:10:49;9.60;99.90
19279;DHT22;9773;47.062;15.446;2022-11-18T14:13:28;9.60;99.90
19279;DHT22;9773;47.062;15.446;2022-11-18T14:15:59;9.50;99.90
19279;DHT22;9773;47.062;15.446;2022-11-18T14:18:29;9.50;99.90
19279;DHT22;9773;47.062;15.446;2022-11-18T14:20:56;9.50;99.90
19279;DHT22;9773;47.062;15.446;2022-11-18T14:23:31;9.40;99.90
19279;DHT22;9773;47.062;15.446;2022-11-18T14:26:00;9.30;99.90
19279;DHT22;9773;47.062;15.446;2022-11-18T14:28:30;9.30;99.90
19279;DHT22;9773;47.062;15.446;2022-11-18T14:33:26;9.30;99.90
19279;DHT22;9773;47.062;15.446;2022-11-18T14:35:59;9.30;99.90
19279;DHT22;9773;47.062;15.446;2022-11-18T14:41:06;9.20;99.90
19279;DHT22;9773;47.062;15.446;2022-11-18T14:43:32;9.20;99.90
19279;DHT22;9773;47.062;15.446;2022-11-18T14:46:01;9.20;99.90
19279;DHT22;9773;47.062;15.446;2022-11-18T14:48:29;9.20;99.90
19279;DHT22;9773;47.062;15.446;2022-11-18T14:50:55;9.20;99.90
19279;DHT22;9773;47.062;15.446;2022-11-18T14:53:21;9.10;99.90
19279;DHT22;9773;47.062;15.446;2022-11-18T14:55:50;9.10;99.90
19279;DHT22;9773;47.062;15.446;2022-11-18T14:58:18;9.20;99.90
19279;DHT22;9773;47.062;15.446;2022-11-18T15:00:46;9.10;99.90
19279;DHT22;9773;47.062;15.446;2022-11-18T15:03:12;9.10;99.90
19279;DHT22;9773;47.062;15.446;2022-11-18T15:05:38;9.10;99.90
19279;DHT22;9773;47.062;15.446;2022-11-18T15:08:05;9.00;99.90
19279;DHT22;9773;47.062;15.446;2022-11-18T15:10:31;8.90;99.90
19279;DHT22;9773;47.062;15.446;2022-11-18T15:12:57;8.90;99.90
19279;DHT22;9773;47.062;15.446;2022-11-18T15:15:23;8.90;99.90
19279;DHT22;9773;47.062;15.446;2022-11-18T15:17:50;8.90;99.90
19279;DHT22;9773;47.062;15.446;2022-11-18T15:20:18;8.90;99.90
19279;DHT22;9773;47.062;15.446;2022-11-18T15:22:44;8.80;99.90
19279;DHT22;9773;47.062;15.446;2022-11-18T15:25:10;8.80;99.90
19279;DHT22;9773;47.062;15.446;2022-11-18T15:27:36;8.80;99.90
19279;DHT22;9773;47.062;15.446;2022-11-18T15:30:06;9.00;99.90
19279;DHT22;9773;47.062;15.446;2022-11-18T15:32:32;8.90;99.90
19279;DHT22;9773;47.062;15.446;2022-11-18T15:35:00;8.90;99.90
19279;DHT22;9773;47.062;15.446;2022-11-18T15:37:26;8.90;99.90
19279;DHT22;9773;47.062;15.446;2022-11-18T15:39:52;8.90;99.90
19279;DHT22;9773;47.062;15.446;2022-11-18T15:42:18;8.80;99.90
19279;DHT22;9773;47.062;15.446;2022-11-18T15:44:44;8.90;99.90
19279;DHT22;9773;47.062;15.446;2022-11-18T15:47:11;8.90;99.90
19279;DHT22;9773;47.062;15.446;2022-11-18T15:49:38;8.90;99.90
19279;DHT22;9773;47.062;15.446;2022-11-18T15:52:10;8.90;99.90
19279;DHT22;9773;47.062;15.446;2022-11-18T15:54:37;8.90;99.90
19279;DHT22;9773;47.062;15.446;2022-11-18T15:57:03;9.00;99.90
19279;DHT22;9773;47.062;15.446;2022-11-18T15:59:32;9.00;99.90
19279;DHT22;9773;47.062;15.446;2022-11-18T16:01:58;9.00;99.90
19279;DHT22;9773;47.062;15.446;2022-11-18T16:04:24;9.00;99.90
19279;DHT22;9773;47.062;15.446;2022-11-18T16:06:50;8.90;99.90
19279;DHT22;9773;47.062;15.446;2022-11-18T16:09:16;8.90;99.90
19279;DHT22;9773;47.062;15.446;2022-11-18T16:11:42;8.90;99.90
19279;DHT22;9773;47.062;15.446;2022-11-18T16:14:29;8.80;99.90
19279;DHT22;9773;47.062;15.446;2022-11-18T16:16:55;8.80;99.90
19279;DHT22;9773;47.062;15.446;2022-11-18T16:19:24;8.90;99.90
19279;DHT22;9773;47.062;15.446;2022-11-18T16:21:54;8.90;99.90
19279;DHT22;9773;47.062;15.446;2022-11-18T16:24:26;8.90;99.90
19279;DHT22;9773;47.062;15.446;2022-11-18T16:26:59;8.90;99.90
19279;DHT22;9773;47.062;15.446;2022-11-18T16:29:25;8.90;99.90
19279;DHT22;9773;47.062;15.446;2022-11-18T16:31:51;8.90;99.90
19279;DHT22;9773;47.062;15.446;2022-11-18T16:34:20;8.90;99.90
19279;DHT22;9773;47.062;15.446;2022-11-18T16:36:52;8.80;99.90
19279;DHT22;9773;47.062;15.446;2022-11-18T16:39:26;8.80;99.90
19279;DHT22;9773;47.062;15.446;2022-11-18T16:41:57;8.80;99.90
19279;DHT22;9773;47.062;15.446;2022-11-18T16:44:23;8.80;99.90
19279;DHT22;9773;47.062;15.446;2022-11-18T16:46:54;8.80;99.90
19279;DHT22;9773;47.062;15.446;2022-11-18T16:49:22;8.80;99.90
19279;DHT22;9773;47.062;15.446;2022-11-18T16:51:50;8.80;99.90
19279;DHT22;9773;47.062;15.446;2022-11-18T16:54:19;8.80;99.90
19279;DHT22;9773;47.062;15.446;2022-11-18T16:56:46;8.70;99.90
19279;DHT22;9773;47.062;15.446;2022-11-18T16:59:32;8.70;99.90
19279;DHT22;9773;47.062;15.446;2022-11-18T17:01:59;8.60;99.90
19279;DHT22;9773;47.062;15.446;2022-11-18T17:04:29;8.60;99.90
19279;DHT22;9773;47.062;15.446;2022-11-18T17:06:55;8.60;99.90
19279;DHT22;9773;47.062;15.446;2022-11-18T17:09:24;8.60;99.90
19279;DHT22;9773;47.062;15.446;2022-11-18T17:11:52;8.70;99.90
19279;DHT22;9773;47.062;15.446;2022-11-18T17:14:18;8.70;99.90
19279;DHT22;9773;47.062;15.446;2022-11-18T17:16:47;8.70;99.90
19279;DHT22;9773;47.062;15.446;2022-11-18T17:19:18;8.70;99.90
19279;DHT22;9773;47.062;15.446;2022-11-18T17:21:45;8.80;99.90
19279;DHT22;9773;47.062;15.446;2022-11-18T17:24:13;8.70;99.90
19279;DHT22;9773;47.062;15.446;2022-11-18T17:26:40;8.70;99.90
19279;DHT22;9773;47.062;15.446;2022-11-18T17:29:08;8.70;99.90
19279;DHT22;9773;47.062;15.446;2022-11-18T17:31:34;8.70;99.90
19279;DHT22;9773;47.062;15.446;2022-11-18T17:34:00;8.70;99.90
19279;DHT22;9773;47.062;15.446;2022-11-18T17:36:26;8.70;99.90
19279;DHT22;9773;47.062;15.446;2022-11-18T17:38:55;8.70;99.90
19279;DHT22;9773;47.062;15.446;2022-11-18T17:41:27;8.70;99.90
19279;DHT22;9773;47.062;15.446;2022-11-18T17:44:14;8.70;99.90
19279;DHT22;9773;47.062;15.446;2022-11-18T17:46:41;8.70;99.90
19279;DHT22;9773;47.062;15.446;2022-11-18T17:49:12;8.70;99.90
19279;DHT22;9773;47.062;15.446;2022-11-18T17:51:39;8.70;99.90
19279;DHT22;9773;47.062;15.446;2022-11-18T17:54:06;8.80;99.90
19279;DHT22;9773;47.062;15.446;2022-11-18T17:56:32;8.80;99.90
19279;DHT22;9773;47.062;15.446;2022-11-18T17:58:58;8.80;99.90
19279;DHT22;9773;47.062;15.446;2022-11-18T18:01:25;8.80;99.90
19279;DHT22;9773;47.062;15.446;2022-11-18T18:03:50;8.80;99.90
19279;DHT22;9773;47.062;15.446;2022-11-18T18:06:17;8.80;99.90
19279;DHT22;9773;47.062;15.446;2022-11-18T18:08:44;8.80;99.90
19279;DHT22;9773;47.062;15.446;2022-11-18T18:11:13;8.80;99.90